sensor_id;sensor_type;location;lat;lon;timestamp;pressure;altitude;pressure_sealevel;temperature;humidity
23899;BME280;20544;50.018;20.010;2023-10-09T06:51:26;99351.15;;;6.85;100.00
23899;BME280;20544;50.018;20.010;2023-10-09T07:00:37;99334.52;;;6.84;100.00
23899;BME280;20544;50.018;20.010;2023-10-09T07:04:11;99331.88;;;6.84;100.00
23899;BME280;20544;50.018;20.010;2023-10-09T07:07:38;99335.75;;;6.80;100.00
23899;BME280;20544;50.018;20.010;2023-10-09T07:11:02;99336.60;;;6.80;100.00
23899;BME280;20544;50.018;20.010;2023-10-09T07:14:37;99338.54;;;6.78;100.00
23899;BME280;20544;50.018;20.010;2023-10-09T07:18:12;99340.36;;;6.78;100.00
23899;BME280;20544;50.018;20.010;2023-10-09T07:21:40;99340.20;;;6.79;100.00
23899;BME280;20544;50.018;20.010;2023-10-09T07:25:01;99341.88;;;6.80;100.00
23899;BME280;20544;50.018;20.010;2023-10-09T07:28:33;99345.48;;;6.79;100.00
23899;BME280;20544;50.018;20.010;2023-10-09T07:31:58;99331.33;;;6.80;100.00
23899;BME280;20544;50.018;20.010;2023-10-09T07:35:17;99325.20;;;6.80;100.00
23899;BME280;20544;50.018;20.010;2023-10-09T07:38:38;99327.42;;;6.85;100.00
23899;BME280;20544;50.018;20.010;2023-10-09T07:42:01;99323.51;;;6.89;100.00
23899;BME280;20544;50.018;20.010;2023-10-09T07:45:52;99313.23;;;6.95;100.00
23899;BME280;20544;50.018;20.010;2023-10-09T07:49:30;99311.95;;;7.00;100.00
23899;BME280;20544;50.018;20.010;2023-10-09T07:53:37;99314.44;;;7.01;100.00
23899;BME280;20544;50.018;20.010;2023-10-09T08:03:39;99315.59;;;6.89;100.00
23899;BME280;20544;50.018;20.010;2023-10-09T08:27:51;99287.30;;;6.53;100.00
23899;BME280;20544;50.018;20.010;2023-10-09T08:31:13;99287.41;;;6.52;100.00
23899;BME280;20544;50.018;20.010;2023-10-09T08:34:43;99282.02;;;6.53;100.00
23899;BME280;20544;50.018;20.010;2023-10-09T08:38:11;99277.56;;;6.54;100.00
23899;BME280;20544;50.018;20.010;2023-10-09T08:41:34;99282.84;;;6.54;100.00
23899;BME280;20544;50.018;20.010;2023-10-09T08:44:52;99270.60;;;6.62;100.00
23899;BME280;20544;50.018;20.010;2023-10-09T08:48:13;99255.88;;;6.70;100.00
23899;BME280;20544;50.018;20.010;2023-10-09T08:51:38;99251.10;;;6.83;100.00
23899;BME280;20544;50.018;20.010;2023-10-09T08:55:03;99249.05;;;6.77;100.00
23899;BME280;20544;50.018;20.010;2023-10-09T08:58:36;99239.28;;;6.87;100.00
23899;BME280;20544;50.018;20.010;2023-10-09T09:01:54;99234.00;;;6.87;100.00
23899;BME280;20544;50.018;20.010;2023-10-09T09:05:22;99224.15;;;6.89;100.00
23899;BME280;20544;50.018;20.010;2023-10-09T09:08:47;99215.92;;;6.92;100.00
23899;BME280;20544;50.018;20.010;2023-10-09T09:12:08;99219.92;;;6.96;100.00
23899;BME280;20544;50.018;20.010;2023-10-09T09:15:30;99214.90;;;7.03;100.00
23899;BME280;20544;50.018;20.010;2023-10-09T09:18:55;99202.46;;;6.95;100.00
23899;BME280;20544;50.018;20.010;2023-10-09T09:22:18;99194.55;;;6.95;100.00
23899;BME280;20544;50.018;20.010;2023-10-09T09:25:46;99191.31;;;7.02;100.00
23899;BME280;20544;50.018;20.010;2023-10-09T09:29:11;99176.41;;;7.10;100.00
23899;BME280;20544;50.018;20.010;2023-10-09T09:32:33;99166.38;;;7.14;100.00
23899;BME280;20544;50.018;20.010;2023-10-09T09:36:06;99162.02;;;7.23;100.00
23899;BME280;20544;50.018;20.010;2023-10-09T09:39:27;99164.12;;;7.19;100.00
23899;BME280;20544;50.018;20.010;2023-10-09T09:42:56;99166.69;;;7.29;100.00
23899;BME280;20544;50.018;20.010;2023-10-09T09:46:25;99173.01;;;7.18;100.00
23899;BME280;20544;50.018;20.010;2023-10-09T09:50:02;99172.63;;;7.13;100.00
23899;BME280;20544;50.018;20.010;2023-10-09T09:53:28;99172.26;;;7.08;100.00
23899;BME280;20544;50.018;20.010;2023-10-09T09:56:46;99164.72;;;7.13;100.00
23899;BME280;20544;50.018;20.010;2023-10-09T10:00:03;99159.13;;;7.16;100.00
23899;BME280;20544;50.018;20.010;2023-10-09T10:03:29;99160.42;;;7.12;100.00
23899;BME280;20544;50.018;20.010;2023-10-09T10:06:54;99151.81;;;7.10;100.00
23899;BME280;20544;50.018;20.010;2023-10-09T10:10:38;99151.22;;;7.16;100.00
23899;BME280;20544;50.018;20.010;2023-10-09T10:14:20;99158.06;;;7.09;100.00
23899;BME280;20544;50.018;20.010;2023-10-09T10:18:11;99162.30;;;7.20;100.00
23899;BME280;20544;50.018;20.010;2023-10-09T10:21:35;99155.60;;;7.25;100.00
23899;BME280;20544;50.018;20.010;2023-10-09T10:24:58;99150.98;;;7.27;100.00
23899;BME280;20544;50.018;20.010;2023-10-09T10:28:26;99138.39;;;7.21;100.00
23899;BME280;20544;50.018;20.010;2023-10-09T10:32:03;99134.33;;;7.09;100.00
23899;BME280;20544;50.018;20.010;2023-10-09T10:35:23;99127.55;;;7.24;100.00
23899;BME280;20544;50.018;20.010;2023-10-09T10:38:57;99118.34;;;7.28;100.00
23899;BME280;20544;50.018;20.010;2023-10-09T10:42:30;99105.59;;;7.24;100.00
23899;BME280;20544;50.018;20.010;2023-10-09T10:46:02;99107.50;;;7.32;100.00
23899;BME280;20544;50.018;20.010;2023-10-09T10:49:31;99103.48;;;7.27;100.00
23899;BME280;20544;50.018;20.010;2023-10-09T10:53:13;99107.22;;;7.17;100.00
23899;BME280;20544;50.018;20.010;2023-10-09T10:56:39;99090.53;;;7.16;100.00
23899;BME280;20544;50.018;20.010;2023-10-09T11:00:15;99091.14;;;7.10;100.00
23899;BME280;20544;50.018;20.010;2023-10-09T11:03:57;99080.06;;;7.24;100.00
23899;BME280;20544;50.018;20.010;2023-10-09T11:07:38;99051.24;;;7.31;100.00
23899;BME280;20544;50.018;20.010;2023-10-09T11:11:15;99050.95;;;7.34;100.00
23899;BME280;20544;50.018;20.010;2023-10-09T11:14:46;99052.61;;;7.35;100.00
23899;BME280;20544;50.018;20.010;2023-10-09T11:18:17;99037.88;;;7.33;100.00
23899;BME280;20544;50.018;20.010;2023-10-09T11:21:38;99030.98;;;7.32;100.00
23899;BME280;20544;50.018;20.010;2023-10-09T11:24:56;99012.51;;;7.32;100.00
23899;BME280;20544;50.018;20.010;2023-10-09T11:28:40;99013.65;;;7.29;100.00
23899;BME280;20544;50.018;20.010;2023-10-09T11:32:07;99007.16;;;7.23;100.00
23899;BME280;20544;50.018;20.010;2023-10-09T11:35:27;99002.70;;;7.24;100.00
23899;BME280;20544;50.018;20.010;2023-10-09T11:38:45;99001.37;;;7.20;100.00
23899;BME280;20544;50.018;20.010;2023-10-09T11:42:07;98995.56;;;7.16;100.00
23899;BME280;20544;50.018;20.010;2023-10-09T11:45:28;99000.84;;;7.16;100.00
23899;BME280;20544;50.018;20.010;2023-10-09T11:49:03;98994.84;;;7.06;100.00
23899;BME280;20544;50.018;20.010;2023-10-09T11:52:57;98995.37;;;7.09;100.00
23899;BME280;20544;50.018;20.010;2023-10-09T11:56:31;98990.00;;;7.19;100.00
23899;BME280;20544;50.018;20.010;2023-10-09T11:59:49;98981.56;;;7.16;100.00
23899;BME280;20544;50.018;20.010;2023-10-09T12:03:08;98957.50;;;7.19;100.00
23899;BME280;20544;50.018;20.010;2023-10-09T12:06:26;98956.62;;;7.10;100.00
23899;BME280;20544;50.018;20.010;2023-10-09T12:09:45;98947.27;;;7.16;100.00
23899;BME280;20544;50.018;20.010;2023-10-09T12:13:06;98944.73;;;7.06;100.00
23899;BME280;20544;50.018;20.010;2023-10-09T12:16:25;98948.15;;;6.98;100.00
23899;BME280;20544;50.018;20.010;2023-10-09T12:19:44;98953.09;;;7.01;100.00
23899;BME280;20544;50.018;20.010;2023-10-09T12:23:02;98963.00;;;6.99;100.00
23899;BME280;20544;50.018;20.010;2023-10-09T12:26:22;98967.95;;;7.02;100.00
23899;BME280;20544;50.018;20.010;2023-10-09T12:29:46;98952.32;;;7.09;100.00
23899;BME280;20544;50.018;20.010;2023-10-09T12:33:05;98950.46;;;7.01;100.00
23899;BME280;20544;50.018;20.010;2023-10-09T12:36:25;98954.08;;;7.00;100.00
23899;BME280;20544;50.018;20.010;2023-10-09T12:39:43;98942.39;;;7.03;100.00
23899;BME280;20544;50.018;20.010;2023-10-09T12:43:01;98937.63;;;7.06;100.00
23899;BME280;20544;50.018;20.010;2023-10-09T12:46:20;98935.52;;;7.10;100.00
23899;BME280;20544;50.018;20.010;2023-10-09T12:49:37;98927.25;;;7.05;100.00
23899;BME280;20544;50.018;20.010;2023-10-09T12:53:01;98933.20;;;7.07;100.00
23899;BME280;20544;50.018;20.010;2023-10-09T12:56:22;98934.02;;;7.07;100.00
23899;BME280;20544;50.018;20.010;2023-10-09T12:59:42;98936.72;;;7.16;100.00
23899;BME280;20544;50.018;20.010;2023-10-09T13:03:03;98919.17;;;7.06;100.00
23899;BME280;20544;50.018;20.010;2023-10-09T13:06:28;98920.53;;;7.10;100.00
23899;BME280;20544;50.018;20.010;2023-10-09T13:09:47;98927.66;;;7.18;100.00
23899;BME280;20544;50.018;20.010;2023-10-09T13:13:15;98939.25;;;7.25;100.00
23899;BME280;20544;50.018;20.010;2023-10-09T13:16:32;98937.27;;;7.27;100.00
23899;BME280;20544;50.018;20.010;2023-10-09T13:19:52;98936.80;;;7.32;100.00
23899;BME280;20544;50.018;20.010;2023-10-09T13:23:11;98940.64;;;7.38;100.00
23899;BME280;20544;50.018;20.010;2023-10-09T13:26:29;98932.55;;;7.39;100.00
23899;BME280;20544;50.018;20.010;2023-10-09T13:29:57;98930.66;;;7.23;100.00
23899;BME280;20544;50.018;20.010;2023-10-09T13:33:22;98918.09;;;7.17;100.00
23899;BME280;20544;50.018;20.010;2023-10-09T13:36:51;98910.53;;;7.22;100.00
23899;BME280;20544;50.018;20.010;2023-10-09T13:40:11;98904.63;;;7.28;100.00
23899;BME280;20544;50.018;20.010;2023-10-09T13:43:44;98905.95;;;7.33;100.00
23899;BME280;20544;50.018;20.010;2023-10-09T13:47:03;98901.05;;;7.38;100.00
23899;BME280;20544;50.018;20.010;2023-10-09T13:50:25;98896.08;;;7.35;100.00
23899;BME280;20544;50.018;20.010;2023-10-09T13:53:43;98886.48;;;7.25;100.00
23899;BME280;20544;50.018;20.010;2023-10-09T13:57:00;98902.96;;;7.27;100.00
23899;BME280;20544;50.018;20.010;2023-10-09T14:00:20;98902.45;;;7.24;100.00
23899;BME280;20544;50.018;20.010;2023-10-09T14:03:53;98910.58;;;7.31;100.00
23899;BME280;20544;50.018;20.010;2023-10-09T14:07:11;98902.78;;;7.21;100.00
23899;BME280;20544;50.018;20.010;2023-10-09T14:10:30;98901.74;;;7.13;100.00
23899;BME280;20544;50.018;20.010;2023-10-09T14:13:48;98902.59;;;7.14;100.00
23899;BME280;20544;50.018;20.010;2023-10-09T14:17:10;98900.25;;;7.11;100.00
23899;BME280;20544;50.018;20.010;2023-10-09T14:20:29;98886.89;;;7.12;100.00
23899;BME280;20544;50.018;20.010;2023-10-09T14:23:50;98883.11;;;7.15;100.00
23899;BME280;20544;50.018;20.010;2023-10-09T14:27:06;98887.73;;;7.13;100.00
23899;BME280;20544;50.018;20.010;2023-10-09T14:30:25;98875.88;;;7.17;100.00
23899;BME280;20544;50.018;20.010;2023-10-09T14:33:54;98867.91;;;7.09;100.00
23899;BME280;20544;50.018;20.010;2023-10-09T14:37:14;98872.05;;;7.11;100.00
23899;BME280;20544;50.018;20.010;2023-10-09T14:40:39;98873.41;;;7.16;100.00
23899;BME280;20544;50.018;20.010;2023-10-09T14:44:03;98875.88;;;7.17;100.00
23899;BME280;20544;50.018;20.010;2023-10-09T14:47:24;98882.81;;;7.18;100.00
23899;BME280;20544;50.018;20.010;2023-10-09T14:50:49;98888.14;;;7.26;100.00
23899;BME280;20544;50.018;20.010;2023-10-09T14:54:17;98906.61;;;7.26;100.00
23899;BME280;20544;50.018;20.010;2023-10-09T14:57:34;98898.88;;;7.33;100.00
23899;BME280;20544;50.018;20.010;2023-10-09T15:00:52;98903.83;;;7.36;100.00
23899;BME280;20544;50.018;20.010;2023-10-09T15:04:42;98894.63;;;7.40;100.00
23899;BME280;20544;50.018;20.010;2023-10-09T15:07:57;98903.88;;;7.44;100.00
23899;BME280;20544;50.018;20.010;2023-10-09T15:16:35;98911.33;;;7.49;100.00
23899;BME280;20544;50.018;20.010;2023-10-09T15:20:00;98911.46;;;7.48;100.00
23899;BME280;20544;50.018;20.010;2023-10-09T15:28:15;98907.84;;;7.49;100.00
23899;BME280;20544;50.018;20.010;2023-10-09T15:37:00;98918.73;;;7.45;100.00
23899;BME280;20544;50.018;20.010;2023-10-09T15:40:22;98919.24;;;7.49;100.00
23899;BME280;20544;50.018;20.010;2023-10-09T15:44:45;98930.61;;;7.50;100.00
23899;BME280;20544;50.018;20.010;2023-10-09T15:48:36;98934.75;;;7.52;100.00
23899;BME280;20544;50.018;20.010;2023-10-09T15:52:39;98926.31;;;7.49;100.00
23899;BME280;20544;50.018;20.010;2023-10-09T15:56:35;98927.11;;;7.41;100.00
23899;BME280;20544;50.018;20.010;2023-10-09T16:10:49;98921.38;;;7.45;100.00
23899;BME280;20544;50.018;20.010;2023-10-09T16:17:30;98896.41;;;7.32;100.00
23899;BME280;20544;50.018;20.010;2023-10-09T16:20:48;98894.40;;;7.25;100.00
23899;BME280;20544;50.018;20.010;2023-10-09T16:24:08;98888.77;;;7.20;100.00
23899;BME280;20544;50.018;20.010;2023-10-09T16:27:49;98904.90;;;7.17;100.00
23899;BME280;20544;50.018;20.010;2023-10-09T16:31:05;98900.44;;;7.18;100.00
23899;BME280;20544;50.018;20.010;2023-10-09T16:34:30;98901.45;;;7.17;100.00
23899;BME280;20544;50.018;20.010;2023-10-09T16:37:50;98915.28;;;7.19;100.00
23899;BME280;20544;50.018;20.010;2023-10-09T16:41:24;98947.81;;;7.27;100.00
23899;BME280;20544;50.018;20.010;2023-10-09T16:44:51;98955.11;;;7.34;100.00
23899;BME280;20544;50.018;20.010;2023-10-09T16:48:14;98964.91;;;7.41;100.00
23899;BME280;20544;50.018;20.010;2023-10-09T16:51:47;98962.75;;;7.45;100.00
23899;BME280;20544;50.018;20.010;2023-10-09T16:55:14;98956.83;;;7.43;100.00
23899;BME280;20544;50.018;20.010;2023-10-09T16:58:42;98963.08;;;7.42;100.00
23899;BME280;20544;50.018;20.010;2023-10-09T17:02:02;98968.03;;;7.45;100.00
23899;BME280;20544;50.018;20.010;2023-10-09T17:05:22;98964.92;;;7.50;100.00
23899;BME280;20544;50.018;20.010;2023-10-09T17:08:43;98961.77;;;7.46;100.00
23899;BME280;20544;50.018;20.010;2023-10-09T17:12:06;98972.16;;;7.48;100.00
23899;BME280;20544;50.018;20.010;2023-10-09T17:15:23;98976.33;;;7.50;100.00
23899;BME280;20544;50.018;20.010;2023-10-09T17:18:47;98981.80;;;7.57;100.00
23899;BME280;20544;50.018;20.010;2023-10-09T17:22:09;98984.11;;;7.60;100.00
23899;BME280;20544;50.018;20.010;2023-10-09T17:25:33;98985.60;;;7.63;100.00
23899;BME280;20544;50.018;20.010;2023-10-09T17:28:53;98993.52;;;7.63;100.00
23899;BME280;20544;50.018;20.010;2023-10-09T17:40:09;99023.59;;;7.70;100.00
23899;BME280;20544;50.018;20.010;2023-10-09T17:43:40;99029.72;;;7.70;100.00
23899;BME280;20544;50.018;20.010;2023-10-09T17:54:39;99013.02;;;7.61;100.00
23899;BME280;20544;50.018;20.010;2023-10-09T17:58:17;99016.47;;;7.62;100.00
23899;BME280;20544;50.018;20.010;2023-10-09T18:02:18;99016.27;;;7.55;100.00
23899;BME280;20544;50.018;20.010;2023-10-09T18:23:25;99012.02;;;7.36;100.00
23899;BME280;20544;50.018;20.010;2023-10-09T18:26:50;99012.02;;;7.36;100.00
23899;BME280;20544;50.018;20.010;2023-10-09T18:30:20;99009.90;;;7.40;100.00
23899;BME280;20544;50.018;20.010;2023-10-09T18:44:35;99019.56;;;7.57;100.00
23899;BME280;20544;50.018;20.010;2023-10-09T18:47:59;99027.70;;;7.64;100.00
23899;BME280;20544;50.018;20.010;2023-10-09T18:51:34;99028.74;;;7.71;100.00
23899;BME280;20544;50.018;20.010;2023-10-09T18:55:06;99029.22;;;7.75;100.00
23899;BME280;20544;50.018;20.010;2023-10-09T18:58:27;99031.86;;;7.75;100.00
23899;BME280;20544;50.018;20.010;2023-10-09T19:01:48;99032.88;;;7.74;100.00
23899;BME280;20544;50.018;20.010;2023-10-09T19:05:16;99037.77;;;7.69;100.00
23899;BME280;20544;50.018;20.010;2023-10-09T19:08:41;99026.86;;;7.64;100.00
23899;BME280;20544;50.018;20.010;2023-10-09T19:12:03;99024.38;;;7.62;100.00
23899;BME280;20544;50.018;20.010;2023-10-09T19:15:23;99024.38;;;7.62;100.00
23899;BME280;20544;50.018;20.010;2023-10-09T19:18:47;99027.38;;;7.67;100.00
23899;BME280;20544;50.018;20.010;2023-10-09T19:22:19;99024.27;;;7.72;100.00
23899;BME280;20544;50.018;20.010;2023-10-09T19:28:57;99034.50;;;7.75;100.00
23899;BME280;20544;50.018;20.010;2023-10-09T19:35:45;99034.56;;;7.83;100.00
23899;BME280;20544;50.018;20.010;2023-10-09T19:39:40;99044.95;;;7.85;100.00
23899;BME280;20544;50.018;20.010;2023-10-09T19:42:58;99045.13;;;7.83;100.00
23899;BME280;20544;50.018;20.010;2023-10-09T19:46:28;99048.09;;;7.80;100.00
23899;BME280;20544;50.018;20.010;2023-10-09T19:49:51;99041.45;;;7.76;100.00
23899;BME280;20544;50.018;20.010;2023-10-09T19:53:08;99048.55;;;7.75;100.00
23899;BME280;20544;50.018;20.010;2023-10-09T19:56:48;99053.16;;;7.73;100.00
23899;BME280;20544;50.018;20.010;2023-10-09T20:00:25;99046.73;;;7.76;100.00
23899;BME280;20544;50.018;20.010;2023-10-09T20:03:57;99045.06;;;7.75;100.00
23899;BME280;20544;50.018;20.010;2023-10-09T20:07:57;99052.69;;;7.78;100.00
23899;BME280;20544;50.018;20.010;2023-10-09T20:11:15;99045.45;;;7.80;100.00
23899;BME280;20544;50.018;20.010;2023-10-09T20:14:35;99056.15;;;7.78;100.00
23899;BME280;20544;50.018;20.010;2023-10-09T20:17:55;99056.31;;;7.77;100.00
23899;BME280;20544;50.018;20.010;2023-10-09T20:21:21;99056.31;;;7.77;100.00
23899;BME280;20544;50.018;20.010;2023-10-09T20:27:54;99064.29;;;7.85;100.00
23899;BME280;20544;50.018;20.010;2023-10-09T20:31:23;99045.13;;;7.83;100.00
23899;BME280;20544;50.018;20.010;2023-10-09T20:34:46;99048.74;;;7.82;100.00
23899;BME280;20544;50.018;20.010;2023-10-09T20:38:04;99044.94;;;7.76;100.00
23899;BME280;20544;50.018;20.010;2023-10-09T20:41:23;99044.94;;;7.76;100.00
23899;BME280;20544;50.018;20.010;2023-10-09T20:44:42;99038.92;;;7.66;100.00
23899;BME280;20544;50.018;20.010;2023-10-09T20:48:01;99046.19;;;7.64;100.00
23899;BME280;20544;50.018;20.010;2023-10-09T20:51:21;99048.50;;;7.67;100.00
23899;BME280;20544;50.018;20.010;2023-10-09T20:54:45;99055.14;;;7.71;100.00
23899;BME280;20544;50.018;20.010;2023-10-09T20:58:07;99051.14;;;7.67;100.00
23899;BME280;20544;50.018;20.010;2023-10-09T21:01:29;99056.13;;;7.70;100.00
23899;BME280;20544;50.018;20.010;2023-10-09T21:04:53;99065.38;;;7.74;100.00
23899;BME280;20544;50.018;20.010;2023-10-09T21:08:14;99059.22;;;7.66;100.00
23899;BME280;20544;50.018;20.010;2023-10-09T21:16:02;99067.05;;;7.49;100.00
23899;BME280;20544;50.018;20.010;2023-10-09T21:26:36;99071.97;;;7.44;100.00
23899;BME280;20544;50.018;20.010;2023-10-09T21:30:16;99077.61;;;7.49;100.00
23899;BME280;20544;50.018;20.010;2023-10-09T21:49:00;99082.81;;;7.41;100.00
23899;BME280;20544;50.018;20.010;2023-10-09T21:52:21;99070.30;;;7.43;100.00
23899;BME280;20544;50.018;20.010;2023-10-09T21:55:41;99073.59;;;7.45;100.00
23899;BME280;20544;50.018;20.010;2023-10-09T21:59:05;99075.42;;;7.44;100.00
23899;BME280;20544;50.018;20.010;2023-10-09T22:02:33;99078.06;;;7.44;100.00
23899;BME280;20544;50.018;20.010;2023-10-09T22:05:59;99082.88;;;7.49;100.00
23899;BME280;20544;50.018;20.010;2023-10-09T22:09:40;99085.52;;;7.49;100.00
23899;BME280;20544;50.018;20.010;2023-10-09T22:13:10;99099.24;;;7.53;100.00
23899;BME280;20544;50.018;20.010;2023-10-09T22:16:28;99104.98;;;7.48;100.00
23899;BME280;20544;50.018;20.010;2023-10-09T22:19:49;99110.94;;;7.50;100.00
23899;BME280;20544;50.018;20.010;2023-10-09T22:23:14;99121.02;;;7.55;100.00
23899;BME280;20544;50.018;20.010;2023-10-09T22:26:45;99116.42;;;7.57;100.00
23899;BME280;20544;50.018;20.010;2023-10-09T22:30:07;99116.09;;;7.60;100.00
23899;BME280;20544;50.018;20.010;2023-10-09T22:33:31;99115.80;;;7.63;100.00
23899;BME280;20544;50.018;20.010;2023-10-09T22:37:01;99113.45;;;7.60;100.00
23899;BME280;20544;50.018;20.010;2023-10-09T22:40:20;99113.45;;;7.60;100.00
23899;BME280;20544;50.018;20.010;2023-10-09T22:43:45;99108.17;;;7.60;100.00
23899;BME280;20544;50.018;20.010;2023-10-09T22:47:05;99107.36;;;7.59;100.00
23899;BME280;20544;50.018;20.010;2023-10-09T22:50:24;99121.25;;;7.61;100.00
23899;BME280;20544;50.018;20.010;2023-10-09T22:54:12;99119.88;;;7.57;100.00
23899;BME280;20544;50.018;20.010;2023-10-09T23:05:42;99118.79;;;7.42;100.00
23899;BME280;20544;50.018;20.010;2023-10-09T23:09:11;99113.95;;;7.37;100.00
23899;BME280;20544;50.018;20.010;2023-10-09T23:12:38;99109.20;;;7.41;100.00
23899;BME280;20544;50.018;20.010;2023-10-09T23:16:00;99099.86;;;7.47;100.00
23899;BME280;20544;50.018;20.010;2023-10-09T23:19:25;99124.27;;;7.49;100.00
23899;BME280;20544;50.018;20.010;2023-10-09T23:25:55;99123.30;;;7.50;100.00
23899;BME280;20544;50.018;20.010;2023-10-09T23:29:15;99120.66;;;7.50;100.00
23899;BME280;20544;50.018;20.010;2023-10-09T23:32:34;99120.49;;;7.51;100.00
23899;BME280;20544;50.018;20.010;2023-10-09T23:35:56;99124.06;;;7.42;100.00
23899;BME280;20544;50.018;20.010;2023-10-09T23:39:17;99123.02;;;7.35;100.00
23899;BME280;20544;50.018;20.010;2023-10-09T23:42:45;99128.98;;;7.37;100.00
23899;BME280;20544;50.018;20.010;2023-10-09T23:46:07;99125.49;;;7.36;100.00
23899;BME280;20544;50.018;20.010;2023-10-09T23:49:27;99134.26;;;7.37;100.00
23899;BME280;20544;50.018;20.010;2023-10-09T23:52:50;99136.28;;;7.43;100.00
23899;BME280;20544;50.018;20.010;2023-10-09T23:56:09;99138.08;;;7.42;100.00
23899;BME280;20544;50.018;20.010;2023-10-09T23:59:33;99146.52;;;7.46;100.00
